createdAt,value
2019-05-19T12:33:52.447Z,8.20
2019-05-19T12:36:22.252Z,6.30
2019-05-19T12:38:51.987Z,9.08
2019-05-19T12:41:21.696Z,8.25
2019-05-19T12:43:51.408Z,6.83
2019-05-19T12:46:21.119Z,6.55
2019-05-19T12:48:50.826Z,7.78
2019-05-19T12:51:20.575Z,9.70
2019-05-19T12:53:50.275Z,6.15
2019-05-19T12:56:20.018Z,5.87
2019-05-19T12:58:49.714Z,5.65
2019-05-19T13:01:19.426Z,8.70
2019-05-19T13:03:49.141Z,5.95
2019-05-19T13:06:20.242Z,9.83
2019-05-19T13:08:50.002Z,7.22
2019-05-19T13:11:20.033Z,5.92
2019-05-19T13:13:49.721Z,7.20
2019-05-19T13:16:21.005Z,5.70
2019-05-19T13:21:19.566Z,6.45
2019-05-19T13:23:56.755Z,5.90
2019-05-19T13:26:26.459Z,5.90
2019-05-19T13:28:59.715Z,6.05
2019-05-19T13:31:31.151Z,9.45
2019-05-19T13:34:00.898Z,7.25
2019-05-19T13:36:30.611Z,11.57
2019-05-19T13:39:00.318Z,9.33
2019-05-19T13:44:00.371Z,10.82
2019-05-19T13:46:32.086Z,14.05
2019-05-19T13:49:06.225Z,13.20
2019-05-19T13:51:37.535Z,9.00
2019-05-19T13:54:33.270Z,9.30
2019-05-19T13:57:12.351Z,13.10
2019-05-19T13:59:36.982Z,9.45
2019-05-19T14:02:09.903Z,9.33
2019-05-19T14:04:40.684Z,10.43
2019-05-19T14:07:10.347Z,10.20
2019-05-19T14:09:40.111Z,9.20
2019-05-19T14:12:09.812Z,10.35
2019-05-19T14:14:39.534Z,11.48
2019-05-19T14:17:09.249Z,9.23
2019-05-19T14:19:38.962Z,11.45
2019-05-19T14:22:08.718Z,11.60
2019-05-19T14:24:38.428Z,9.98
2019-05-19T14:27:08.170Z,10.35
2019-05-19T14:29:37.874Z,9.20
2019-05-19T14:32:07.590Z,9.93
2019-05-19T14:34:37.309Z,16.57
2019-05-19T14:37:07.023Z,12.50
2019-05-19T14:39:36.782Z,14.03
2019-05-19T14:42:08.194Z,11.73
2019-05-19T14:47:06.730Z,11.55
2019-05-19T14:49:36.446Z,11.22
2019-05-19T14:52:06.094Z,20.52
2019-05-19T14:54:35.807Z,13.75
2019-05-19T14:57:05.555Z,21.23
2019-05-19T14:59:35.262Z,24.63
2019-05-19T15:02:05.005Z,16.45
2019-05-19T15:04:34.645Z,15.20
2019-05-19T15:07:04.366Z,12.73
2019-05-19T15:09:34.096Z,16.65
2019-05-19T15:12:03.812Z,15.88
2019-05-19T15:14:33.565Z,16.32
2019-05-19T15:17:03.264Z,14.65
2019-05-19T15:19:33.291Z,17.40
2019-05-19T15:22:03.001Z,16.75
2019-05-19T15:24:32.723Z,14.20
2019-05-19T15:27:02.455Z,13.88
2019-05-19T15:29:32.168Z,15.98
2019-05-19T15:32:02.042Z,15.08
2019-05-19T15:34:31.784Z,17.35
2019-05-19T15:37:01.509Z,15.15
2019-05-19T15:39:31.226Z,14.05
2019-05-19T15:42:00.938Z,14.45
2019-05-19T15:44:30.691Z,15.55
2019-05-19T15:47:01.595Z,17.17
2019-05-19T15:49:31.343Z,13.00
2019-05-19T15:52:04.714Z,13.43
2019-05-19T15:54:33.411Z,19.75
2019-05-19T15:57:04.139Z,15.90
2019-05-19T15:59:33.902Z,16.12
2019-05-19T16:02:03.995Z,26.42
2019-05-19T16:04:33.714Z,18.57
2019-05-19T16:07:03.435Z,15.65
2019-05-19T16:09:33.153Z,21.48
2019-05-19T16:12:02.889Z,14.80
2019-05-19T16:14:32.615Z,13.58
2019-05-19T16:17:02.340Z,12.63
2019-05-19T16:19:32.051Z,13.72
2019-05-19T16:22:01.824Z,12.37
2019-05-19T16:24:31.749Z,12.35
2019-05-19T16:27:01.460Z,11.63
2019-05-19T16:29:32.314Z,12.82
2019-05-19T16:32:02.029Z,10.55
2019-05-19T16:34:31.882Z,10.90
2019-05-19T16:37:01.603Z,123.33
2019-05-19T16:39:31.322Z,92.62
2019-05-19T16:42:01.041Z,88.65
2019-05-19T16:44:30.799Z,18.87
2019-05-19T16:47:00.510Z,13.98
2019-05-19T16:49:30.221Z,32.45
2019-05-19T16:51:59.867Z,24.50
2019-05-19T16:54:31.159Z,33.38
2019-05-19T16:57:00.928Z,34.92
2019-05-19T16:59:30.735Z,40.88
2019-05-19T17:02:00.464Z,37.05
2019-05-19T17:04:30.953Z,27.42
2019-05-19T17:07:02.974Z,28.17
2019-05-19T17:09:32.041Z,30.27
2019-05-19T17:12:01.751Z,24.98
2019-05-19T17:14:31.470Z,23.90
2019-05-19T17:17:01.182Z,19.10
2019-05-19T17:19:30.931Z,19.23
2019-05-19T17:22:00.675Z,67.42
2019-05-19T17:24:30.382Z,30.17
2019-05-19T17:27:00.065Z,36.40
2019-05-19T17:29:30.045Z,34.23
2019-05-19T17:32:05.900Z,24.35
2019-05-19T17:34:31.143Z,32.08
2019-05-19T17:37:00.890Z,28.17
2019-05-19T17:39:30.875Z,29.98
2019-05-19T17:42:03.762Z,32.17
2019-05-19T17:44:33.762Z,29.10
2019-05-19T17:47:03.530Z,167.98
2019-05-19T17:49:33.304Z,78.47
2019-05-19T17:52:03.546Z,40.12
2019-05-19T17:54:33.359Z,31.82
2019-05-19T17:57:03.615Z,24.15
2019-05-19T17:59:34.126Z,18.77
2019-05-19T18:02:03.978Z,23.12
2019-05-19T18:04:34.513Z,20.37
2019-05-19T18:07:05.261Z,25.35
2019-05-19T18:09:34.974Z,25.90
2019-05-19T18:12:05.786Z,25.35
2019-05-19T18:14:35.495Z,92.90
2019-05-19T18:17:05.222Z,47.15
2019-05-19T18:19:34.975Z,52.58
2019-05-19T18:22:05.682Z,36.53
2019-05-19T18:24:35.438Z,32.85
2019-05-19T18:27:05.074Z,42.45
2019-05-19T18:29:34.827Z,56.37
2019-05-19T18:32:04.546Z,54.05
2019-05-19T18:34:35.307Z,44.07
2019-05-19T18:37:05.022Z,43.00
2019-05-19T18:39:34.670Z,35.55
2019-05-19T18:42:04.389Z,37.42
2019-05-19T18:44:34.362Z,41.73
2019-05-19T18:47:04.114Z,38.38
2019-05-19T18:49:33.895Z,39.92
2019-05-19T18:52:03.631Z,43.05
2019-05-19T18:54:33.350Z,38.85
2019-05-19T18:57:03.078Z,30.77
2019-05-19T18:59:46.498Z,42.48
2019-05-19T19:02:04.249Z,191.68
2019-05-19T19:04:34.014Z,247.17
2019-05-19T19:07:03.730Z,91.95
2019-05-19T19:09:33.450Z,94.30
2019-05-19T19:12:03.166Z,89.83
2019-05-19T19:14:33.883Z,74.70
2019-05-19T19:17:03.635Z,30.70
2019-05-19T19:19:33.351Z,27.40
2019-05-19T19:22:03.074Z,56.55
2019-05-19T19:24:32.890Z,89.72
2019-05-19T19:27:02.612Z,56.15
2019-05-19T19:29:32.318Z,53.05
2019-05-19T19:32:02.083Z,88.20
2019-05-19T19:34:31.778Z,34.20
2019-05-19T19:37:01.496Z,41.33
2019-05-19T19:39:31.258Z,42.10
2019-05-19T19:42:04.924Z,38.10
2019-05-19T19:44:35.074Z,27.32
2019-05-19T19:47:04.806Z,30.45
2019-05-19T19:49:34.533Z,88.97
2019-05-19T19:52:04.738Z,49.13
2019-05-19T19:54:34.379Z,52.03
2019-05-19T19:57:04.191Z,50.58
2019-05-19T19:59:34.174Z,34.98
2019-05-19T20:02:03.930Z,32.67
2019-05-19T20:04:33.870Z,23.35
2019-05-19T20:07:03.588Z,20.88
2019-05-19T20:09:33.312Z,21.75
2019-05-19T20:12:03.023Z,30.70
2019-05-19T20:14:32.783Z,65.45
2019-05-19T20:17:02.492Z,39.38
2019-05-19T20:19:32.227Z,25.72
2019-05-19T20:22:01.935Z,28.62
2019-05-19T20:24:31.646Z,20.72
2019-05-19T20:27:01.398Z,22.65
2019-05-19T20:29:31.128Z,21.48
2019-05-19T20:32:00.874Z,26.55
2019-05-19T20:34:30.587Z,29.05
2019-05-19T20:37:00.230Z,32.17
2019-05-19T20:39:29.955Z,26.45
2019-05-19T20:41:59.674Z,19.98
2019-05-19T20:44:29.604Z,22.82
2019-05-19T20:46:59.318Z,23.18
2019-05-19T20:49:29.077Z,27.60
2019-05-19T20:51:58.793Z,23.55
2019-05-19T20:54:28.514Z,22.62
2019-05-19T20:56:58.240Z,36.77
2019-05-19T20:59:27.940Z,55.33
2019-05-19T21:01:58.702Z,34.50
2019-05-19T21:04:28.418Z,32.75
2019-05-19T21:06:58.182Z,38.75
2019-05-19T21:09:29.158Z,47.37
2019-05-19T21:11:58.926Z,50.58
2019-05-19T21:14:28.647Z,42.00
2019-05-19T21:16:58.362Z,40.43
2019-05-19T21:19:28.011Z,35.68
2019-05-19T21:21:57.731Z,29.25
2019-05-19T21:24:27.485Z,27.17
2019-05-19T21:26:58.379Z,30.37
2019-05-19T21:29:28.151Z,26.80
2019-05-19T21:31:57.867Z,26.30
2019-05-19T21:34:27.599Z,30.65
2019-05-19T21:36:57.323Z,46.85
2019-05-19T21:39:27.066Z,36.68
2019-05-19T21:41:56.816Z,27.95
2019-05-19T21:44:26.522Z,38.45
2019-05-19T21:46:56.168Z,36.23
2019-05-19T21:49:25.886Z,25.97
2019-05-19T21:51:55.643Z,25.55
2019-05-19T21:54:25.350Z,25.02
2019-05-19T21:56:55.110Z,20.90
2019-05-19T21:59:24.827Z,26.62
2019-05-19T22:02:02.750Z,22.07
2019-05-19T22:04:32.459Z,21.50
2019-05-19T22:07:07.590Z,22.73
2019-05-19T22:09:37.234Z,21.23
2019-05-19T22:12:06.981Z,26.73
2019-05-19T22:14:36.698Z,26.48
2019-05-19T22:17:07.442Z,27.37
2019-05-19T22:19:37.163Z,27.50
2019-05-19T22:22:06.926Z,24.90
2019-05-19T22:24:36.668Z,20.45
2019-05-19T22:27:06.374Z,20.08
2019-05-19T22:29:36.085Z,21.50
2019-05-19T22:32:06.806Z,29.02
2019-05-19T22:34:36.554Z,21.40
2019-05-19T22:37:06.275Z,24.18
2019-05-19T22:39:36.052Z,21.77
2019-05-19T22:42:05.774Z,21.80
2019-05-19T22:44:35.502Z,20.88
2019-05-19T22:47:06.227Z,22.47
2019-05-19T22:49:35.945Z,21.93
2019-05-19T22:52:05.637Z,23.10
2019-05-19T22:54:35.350Z,17.67
2019-05-19T22:57:05.113Z,21.60
2019-05-19T22:59:34.826Z,17.02
2019-05-19T23:02:04.467Z,16.75
2019-05-19T23:04:34.183Z,16.65
2019-05-19T23:07:03.822Z,14.98
2019-05-19T23:09:33.584Z,15.35
2019-05-19T23:12:03.286Z,17.67
2019-05-19T23:14:34.045Z,18.10
2019-05-19T23:17:03.856Z,15.05
2019-05-19T23:19:33.576Z,17.92
2019-05-19T23:22:03.335Z,16.75
2019-05-19T23:24:33.082Z,21.12
2019-05-19T23:27:02.783Z,26.00
2019-05-19T23:29:32.507Z,21.68
2019-05-19T23:32:07.156Z,18.37
2019-05-19T23:34:33.546Z,19.67
2019-05-19T23:37:03.670Z,18.27
2019-05-19T23:39:33.379Z,18.92
2019-05-19T23:42:03.141Z,17.92
2019-05-19T23:44:32.853Z,16.87
2019-05-19T23:47:02.584Z,19.25
2019-05-19T23:49:32.282Z,16.45
2019-05-19T23:52:02.102Z,19.90
2019-05-19T23:54:31.867Z,20.23
2019-05-19T23:57:01.579Z,15.72
2019-05-19T23:59:31.299Z,15.28
